Time;durP1;ratioP1;P1;durP2;ratioP2;P2;SDS_P1;SDS_P2;PMS_P1;PMS_P2;Temp;Humidity;BMP_temperature;BMP_pressure;BME280_temperature;BME280_humidity;BME280_pressure;Samples;Min_cycle;Max_cycle;Signal;HPM_P1;HPM_P2
2021/05/31 00:02:05;;;;;;;3.53;3.00;;;21.90;44.10;;;;;;5024198;28;20160;-82
2021/05/31 00:04:31;;;;;;;3.83;2.87;;;21.90;44.10;;;;;;5007794;28;20176;-82
2021/05/31 00:07:12;;;;;;;3.53;3.20;;;21.90;44.20;;;;;;5024153;28;20220;-81
2021/05/31 00:09:39;;;;;;;3.40;3.10;;;22.00;44.30;;;;;;5006529;28;20188;-81
2021/05/31 00:12:09;;;;;;;4.00;3.07;;;21.90;44.10;;;;;;5006808;28;20415;-81
2021/05/31 00:14:35;;;;;;;3.50;2.60;;;21.90;44.10;;;;;;5006986;28;20474;-82
2021/05/31 00:17:01;;;;;;;3.07;2.73;;;21.90;44.00;;;;;;5024576;28;20430;-82
2021/05/31 00:19:27;;;;;;;2.77;2.57;;;21.90;43.90;;;;;;5022839;28;20407;-81
2021/05/31 00:21:53;;;;;;;3.43;2.87;;;21.90;43.90;;;;;;5006270;28;20256;-82
2021/05/31 00:24:19;;;;;;;3.60;3.00;;;21.90;43.90;;;;;;5025010;28;20208;-82
2021/05/31 00:26:45;;;;;;;2.90;2.57;;;21.90;43.90;;;;;;5024485;28;20415;-81
2021/05/31 00:29:11;;;;;;;4.87;3.63;;;21.80;43.90;;;;;;5006491;28;20469;-81
2021/05/31 00:31:37;;;;;;;3.60;3.30;;;21.80;43.80;;;;;;5024757;28;20543;-81
2021/05/31 00:34:03;;;;;;;2.73;2.50;;;21.80;43.90;;;;;;5023205;28;20459;-82
2021/05/31 00:36:29;;;;;;;4.93;3.10;;;21.80;43.90;;;;;;5023714;28;20172;-81
2021/05/31 00:38:55;;;;;;;4.00;2.70;;;21.90;44.00;;;;;;5005905;28;20814;-82
2021/05/31 00:41:22;;;;;;;3.00;2.80;;;21.80;43.80;;;;;;5005967;28;20411;-82
2021/05/31 00:43:49;;;;;;;3.07;2.80;;;21.80;43.80;;;;;;5022806;28;20415;-82
2021/05/31 00:46:14;;;;;;;3.23;2.80;;;21.90;43.90;;;;;;5005576;28;20886;-81
2021/05/31 00:48:41;;;;;;;3.60;3.30;;;21.80;43.80;;;;;;5023293;28;20422;-82
2021/05/31 00:51:09;;;;;;;3.53;3.23;;;21.90;43.80;;;;;;5022994;28;20180;-82
2021/05/31 00:53:35;;;;;;;3.73;3.13;;;21.80;43.80;;;;;;5005912;28;20427;-82
2021/05/31 00:56:02;;;;;;;2.67;2.47;;;21.80;43.70;;;;;;5022548;28;20407;-82
2021/05/31 00:58:28;;;;;;;3.30;3.00;;;21.80;43.70;;;;;;5005705;28;20414;-82
2021/05/31 01:00:56;;;;;;;4.07;3.20;;;21.80;43.70;;;;;;5005701;28;20951;-82
2021/05/31 01:03:22;;;;;;;3.60;2.47;;;21.80;43.70;;;;;;5005635;28;20422;-81
2021/05/31 01:05:49;;;;;;;3.10;2.57;;;21.80;43.80;;;;;;5023197;28;20412;-82
2021/05/31 01:08:20;;;;;;;3.47;2.93;;;21.80;43.80;;;;;;5005867;28;20431;-82
2021/05/31 01:11:09;;;;;;;2.67;2.47;;;21.80;43.80;;;;;;5023248;28;20487;-82
2021/05/31 01:13:40;;;;;;;3.03;2.80;;;21.80;43.70;;;;;;5023174;28;20506;-82
2021/05/31 01:16:20;;;;;;;4.70;3.00;;;21.80;43.70;;;;;;5023458;28;20415;-82
2021/05/31 01:18:48;;;;;;;4.13;2.90;;;21.80;43.70;;;;;;5021970;28;20505;-82
2021/05/31 01:21:35;;;;;;;3.13;2.67;;;21.80;43.70;;;;;;5023293;28;20420;-82
2021/05/31 01:24:13;;;;;;;3.10;2.90;;;21.80;43.70;;;;;;5022766;28;20430;-82
2021/05/31 01:26:59;;;;;;;3.83;3.20;;;21.80;43.70;;;;;;5023377;28;20426;-82
2021/05/31 01:29:26;;;;;;;2.77;2.57;;;21.70;43.60;;;;;;5005902;28;20497;-82
2021/05/31 01:32:03;;;;;;;3.07;2.40;;;21.70;43.70;;;;;;4993180;28;20411;-82
2021/05/31 01:34:33;;;;;;;3.03;2.57;;;21.70;43.70;;;;;;5027240;28;20451;-82
2021/05/31 01:37:05;;;;;;;3.50;3.03;;;21.70;43.80;;;;;;5009300;28;20422;-82
2021/05/31 01:39:35;;;;;;;2.83;2.63;;;21.70;43.60;;;;;;5009673;28;20416;-81
2021/05/31 01:42:01;;;;;;;5.10;3.27;;;21.70;43.70;;;;;;5026576;28;20403;-83
2021/05/31 01:44:27;;;;;;;4.50;3.20;;;21.70;43.60;;;;;;5027185;28;20426;-82
2021/05/31 01:46:53;;;;;;;3.10;2.90;;;21.70;43.60;;;;;;5009658;28;20419;-82
2021/05/31 01:49:20;;;;;;;3.07;2.77;;;21.70;43.60;;;;;;5009170;28;20422;-81
2021/05/31 01:51:47;;;;;;;3.00;2.70;;;21.70;43.50;;;;;;4993888;28;20419;-81
2021/05/31 01:54:14;;;;;;;4.20;3.30;;;21.70;43.50;;;;;;5027675;28;20455;-82
2021/05/31 01:56:45;;;;;;;4.53;3.07;;;21.70;43.50;;;;;;5009958;28;20832;-81
2021/05/31 01:59:12;;;;;;;3.50;2.90;;;21.70;43.50;;;;;;5011216;28;20419;-81
2021/05/31 02:01:38;;;;;;;5.47;3.03;;;21.70;43.50;;;;;;5027632;28;20462;-80
2021/05/31 02:04:05;;;;;;;3.80;3.43;;;21.70;43.50;;;;;;5027618;28;20419;-82
2021/05/31 02:06:30;;;;;;;3.50;2.83;;;21.70;43.40;;;;;;5029005;28;20419;-82
2021/05/31 02:08:56;;;;;;;3.40;2.60;;;21.70;43.50;;;;;;5030291;28;20414;-82
2021/05/31 02:11:28;;;;;;;3.30;3.00;;;21.60;43.30;;;;;;5027492;28;20192;-81
2021/05/31 02:14:01;;;;;;;3.07;2.77;;;21.60;43.30;;;;;;5029873;28;20191;-81
2021/05/31 02:16:33;;;;;;;3.50;3.10;;;21.70;43.40;;;;;;5010048;28;20407;-82
2021/05/31 02:19:02;;;;;;;5.53;3.13;;;21.60;43.30;;;;;;5010700;28;20419;-81
2021/05/31 02:21:30;;;;;;;4.03;3.63;;;21.60;43.30;;;;;;5029837;28;20471;-81
2021/05/31 02:23:57;;;;;;;3.53;2.77;;;21.60;43.30;;;;;;5025847;28;20412;-81
2021/05/31 02:26:23;;;;;;;3.23;2.33;;;21.60;43.30;;;;;;5008701;28;20451;-83
2021/05/31 02:28:48;;;;;;;3.60;3.30;;;21.60;43.30;;;;;;5008732;28;20423;-82
2021/05/31 02:31:18;;;;;;;3.20;2.90;;;21.60;43.30;;;;;;5008677;28;20407;-81
2021/05/31 02:33:48;;;;;;;3.77;3.33;;;21.60;43.30;;;;;;5008540;28;20485;-82
2021/05/31 02:36:15;;;;;;;3.30;3.00;;;21.60;43.20;;;;;;5024448;28;20423;-81
2021/05/31 02:38:41;;;;;;;4.10;2.70;;;21.60;43.20;;;;;;5025984;28;20439;-81
2021/05/31 02:41:08;;;;;;;4.00;2.80;;;21.60;43.20;;;;;;5007337;28;20431;-82
2021/05/31 02:43:33;;;;;;;3.50;2.70;;;21.60;43.20;;;;;;5008595;28;20462;-81
2021/05/31 02:46:00;;;;;;;3.80;3.03;;;21.60;43.20;;;;;;5007524;28;20419;-81
2021/05/31 02:48:26;;;;;;;3.40;3.10;;;21.60;43.20;;;;;;5007496;28;20185;-81
2021/05/31 02:50:56;;;;;;;2.70;2.50;;;21.60;43.10;;;;;;5024242;28;20415;-82
2021/05/31 02:53:22;;;;;;;3.20;2.90;;;21.60;43.10;;;;;;5025322;28;20404;-82
2021/05/31 02:55:48;;;;;;;3.77;3.20;;;21.60;43.10;;;;;;5007642;28;20463;-82
2021/05/31 02:58:14;;;;;;;3.30;3.00;;;21.60;43.10;;;;;;5007616;28;20416;-81
2021/05/31 03:00:39;;;;;;;3.37;2.77;;;21.60;43.10;;;;;;5023733;28;20230;-81
2021/05/31 03:03:05;;;;;;;3.60;3.17;;;21.60;43.00;;;;;;5024393;28;20260;-81
2021/05/31 03:05:32;;;;;;;3.87;3.30;;;21.60;43.00;;;;;;5025426;28;20536;-81
2021/05/31 03:07:58;;;;;;;3.50;2.97;;;21.50;43.00;;;;;;5023776;28;20554;-81
2021/05/31 03:10:26;;;;;;;3.23;2.93;;;21.50;42.90;;;;;;5007588;28;20420;-82
2021/05/31 03:12:52;;;;;;;3.03;2.60;;;21.50;42.90;;;;;;5007297;28;20477;-81
2021/05/31 03:15:19;;;;;;;2.40;2.20;;;21.50;42.90;;;;;;5007256;28;20447;-81
2021/05/31 03:17:49;;;;;;;2.90;2.50;;;21.50;42.80;;;;;;5007923;28;20172;-81
2021/05/31 03:20:16;;;;;;;2.73;2.50;;;21.40;42.70;;;;;;5025529;28;20415;-81
2021/05/31 03:22:42;;;;;;;2.53;2.33;;;21.50;42.80;;;;;;5008091;28;20902;-81
2021/05/31 03:25:09;;;;;;;3.73;2.50;;;21.50;42.80;;;;;;5024806;28;20415;-81
2021/05/31 03:27:35;;;;;;;2.90;2.70;;;21.50;42.80;;;;;;5013570;28;20483;-81
2021/05/31 03:30:01;;;;;;;4.17;3.30;;;21.50;42.70;;;;;;5004757;28;20424;-81
2021/05/31 03:32:27;;;;;;;2.77;2.30;;;21.40;42.70;;;;;;5004403;28;20201;-81
2021/05/31 03:34:53;;;;;;;3.37;3.07;;;21.50;42.70;;;;;;4988043;28;20456;-82
2021/05/31 03:37:18;;;;;;;3.00;2.70;;;21.50;42.70;;;;;;5005443;28;20181;-82
2021/05/31 03:39:46;;;;;;;3.30;3.00;;;21.40;42.60;;;;;;5003784;28;20193;-82
2021/05/31 03:42:12;;;;;;;3.17;2.87;;;21.40;42.60;;;;;;5005029;28;20180;-82
2021/05/31 03:44:38;;;;;;;3.10;2.80;;;21.40;42.60;;;;;;5003690;28;20421;-82
2021/05/31 03:47:04;;;;;;;3.30;2.40;;;21.50;42.70;;;;;;4987142;28;20467;-82
2021/05/31 03:49:29;;;;;;;2.60;2.20;;;21.50;42.70;;;;;;5004771;28;20177;-82
2021/05/31 03:51:55;;;;;;;2.50;2.30;;;21.50;42.60;;;;;;5004888;28;20609;-82
2021/05/31 03:54:21;;;;;;;3.77;2.90;;;21.50;42.60;;;;;;5002745;28;20193;-81
2021/05/31 03:56:47;;;;;;;3.60;3.00;;;21.40;42.50;;;;;;5003336;28;20350;-81
2021/05/31 03:59:12;;;;;;;2.80;2.60;;;21.50;42.60;;;;;;4987242;28;20654;-82
2021/05/31 04:01:38;;;;;;;4.00;3.00;;;21.50;42.50;;;;;;5004540;28;20727;-81
2021/05/31 04:04:05;;;;;;;3.80;3.20;;;21.40;42.50;;;;;;5004997;28;20235;-81
2021/05/31 04:06:54;;;;;;;4.00;3.27;;;21.40;42.50;;;;;;4986865;28;20428;-81
2021/05/31 04:12:04;;;;;;;3.93;3.13;;;21.50;42.50;;;;;;5005201;28;20480;-81
2021/05/31 04:14:29;;;;;;;3.30;2.90;;;21.50;42.50;;;;;;4987742;28;20488;-81
2021/05/31 04:16:56;;;;;;;4.90;3.60;;;21.40;42.50;;;;;;5005506;28;20173;-82
2021/05/31 04:19:23;;;;;;;3.73;3.37;;;21.50;42.50;;;;;;4983481;28;20177;-82
2021/05/31 04:21:51;;;;;;;3.40;3.10;;;21.50;42.50;;;;;;4985668;28;20778;-82
2021/05/31 04:24:18;;;;;;;3.27;2.90;;;21.50;42.50;;;;;;4968760;28;20462;-82
2021/05/31 04:26:45;;;;;;;3.37;3.07;;;21.50;42.40;;;;;;4986171;28;20421;-82
2021/05/31 04:29:12;;;;;;;3.40;3.10;;;21.50;42.50;;;;;;4986226;28;20475;-82
2021/05/31 04:31:39;;;;;;;5.20;4.07;;;21.50;42.40;;;;;;4985818;28;20416;-81
2021/05/31 04:34:07;;;;;;;4.13;3.70;;;21.60;42.50;;;;;;4985436;28;20475;-80
2021/05/31 04:36:33;;;;;;;3.83;3.33;;;21.60;42.60;;;;;;4984816;28;20441;-81
2021/05/31 04:38:59;;;;;;;4.13;3.23;;;21.60;42.60;;;;;;4985479;28;20424;-82
2021/05/31 04:41:26;;;;;;;4.60;3.60;;;21.60;42.60;;;;;;4984136;28;20460;-82
2021/05/31 04:43:52;;;;;;;3.70;3.37;;;21.60;42.60;;;;;;4968813;28;20417;-81
2021/05/31 04:46:18;;;;;;;4.17;3.27;;;21.60;42.60;;;;;;4985240;28;20425;-81
2021/05/31 04:48:43;;;;;;;3.30;2.90;;;21.60;42.60;;;;;;4985716;28;20174;-80
2021/05/31 04:51:09;;;;;;;3.97;3.40;;;21.60;42.70;;;;;;4988103;28;20428;-81
2021/05/31 04:53:35;;;;;;;3.50;3.20;;;21.60;42.70;;;;;;4988143;28;20173;-81
2021/05/31 04:56:03;;;;;;;3.63;3.33;;;21.60;42.70;;;;;;4986237;28;20169;-81
2021/05/31 04:58:29;;;;;;;2.90;2.70;;;21.70;42.80;;;;;;4969833;28;20189;-81
2021/05/31 05:00:55;;;;;;;4.03;3.00;;;21.70;42.80;;;;;;4987239;28;20417;-82
2021/05/31 05:03:21;;;;;;;3.50;3.03;;;21.70;42.80;;;;;;4968564;28;20216;-82
2021/05/31 05:05:48;;;;;;;3.00;2.80;;;21.70;42.70;;;;;;4969753;28;20440;-82
2021/05/31 05:08:15;;;;;;;3.53;3.23;;;21.70;42.80;;;;;;4984739;28;20464;-82
2021/05/31 05:10:41;;;;;;;4.63;3.30;;;21.70;42.80;;;;;;4967376;28;20432;-82
2021/05/31 05:13:07;;;;;;;3.60;2.60;;;21.70;42.80;;;;;;4984748;28;20402;-82
2021/05/31 05:18:55;;;;;;;3.17;2.70;;;21.80;42.80;;;;;;4984989;28;20416;-82
2021/05/31 05:21:21;;;;;;;4.93;3.17;;;21.70;43.50;;;;;;4984669;28;20420;-83
2021/05/31 05:23:48;;;;;;;4.77;3.00;;;21.80;42.90;;;;;;4968673;28;20424;-82
2021/05/31 05:26:14;;;;;;;3.23;2.70;;;21.80;43.00;;;;;;4967595;28;20174;-86
2021/05/31 05:28:40;;;;;;;3.13;2.50;;;21.80;42.90;;;;;;4967246;28;20912;-82
2021/05/31 05:31:10;;;;;;;4.00;2.50;;;21.80;42.90;;;;;;4986732;28;20437;-80
2021/05/31 05:33:38;;;;;;;3.07;2.77;;;21.80;43.10;;;;;;4982445;28;20420;-81
2021/05/31 05:36:25;;;;;;;2.67;2.43;;;21.80;43.20;;;;;;4983138;28;20532;-82
2021/05/31 05:41:34;;;;;;;3.17;2.40;;;21.90;43.50;;;;;;4983021;28;20389;-82
2021/05/31 05:48:57;;;;;;;2.30;2.10;;;21.80;43.50;;;;;;4983517;28;20409;-82
2021/05/31 05:51:22;;;;;;;2.27;2.07;;;21.90;43.60;;;;;;4983536;28;20233;-82
2021/05/31 05:53:48;;;;;;;2.37;2.17;;;21.90;43.60;;;;;;4983025;28;20511;-81
2021/05/31 05:56:20;;;;;;;2.80;2.50;;;21.90;43.60;;;;;;5002297;28;20173;-81
2021/05/31 05:58:47;;;;;;;2.70;2.50;;;21.90;43.60;;;;;;4986641;28;20401;-82
2021/05/31 06:01:15;;;;;;;3.90;2.63;;;22.00;43.70;;;;;;5003844;28;20412;-82
2021/05/31 06:03:41;;;;;;;2.50;2.30;;;22.00;43.70;;;;;;5003666;28;20495;-82
2021/05/31 06:06:08;;;;;;;2.77;2.40;;;22.00;43.70;;;;;;5003459;28;20441;-82
2021/05/31 06:08:34;;;;;;;2.43;2.23;;;22.00;43.70;;;;;;5003719;28;20643;-82
2021/05/31 06:11:03;;;;;;;2.80;2.23;;;22.00;43.70;;;;;;5003778;28;20404;-82
2021/05/31 06:13:35;;;;;;;2.27;2.07;;;22.00;43.80;;;;;;4990832;28;20503;-82
2021/05/31 06:16:02;;;;;;;3.73;2.20;;;22.00;43.70;;;;;;4969141;28;20997;-82
2021/05/31 06:18:31;;;;;;;3.33;2.37;;;22.00;43.80;;;;;;5005369;28;20408;-80
2021/05/31 06:20:57;;;;;;;2.77;2.17;;;22.10;43.80;;;;;;5006226;28;20424;-81
2021/05/31 06:23:23;;;;;;;2.90;2.43;;;22.10;43.80;;;;;;4989496;28;20444;-81
2021/05/31 06:25:49;;;;;;;2.30;2.10;;;22.10;43.80;;;;;;4988530;28;20440;-81
2021/05/31 06:28:15;;;;;;;2.60;1.90;;;22.10;43.90;;;;;;4989527;28;20424;-81
2021/05/31 06:30:41;;;;;;;3.80;2.30;;;22.10;44.40;;;;;;5006586;28;20185;-81
2021/05/31 06:33:07;;;;;;;2.73;2.17;;;22.10;43.90;;;;;;4989607;28;20428;-82
2021/05/31 06:35:33;;;;;;;3.93;2.17;;;22.10;43.90;;;;;;5006002;28;20470;-82
2021/05/31 06:37:59;;;;;;;2.30;2.10;;;22.10;43.90;;;;;;4991532;28;20188;-82
2021/05/31 06:40:26;;;;;;;2.97;2.13;;;22.10;43.90;;;;;;4990966;28;20412;-81
2021/05/31 06:42:53;;;;;;;2.27;1.77;;;22.20;44.00;;;;;;5007884;28;20420;-81
2021/05/31 06:45:23;;;;;;;2.70;2.23;;;22.20;44.00;;;;;;5004372;28;20514;-82
2021/05/31 06:47:53;;;;;;;3.73;2.57;;;22.20;44.00;;;;;;5008425;28;20483;-82
2021/05/31 06:50:19;;;;;;;3.30;2.30;;;22.20;44.00;;;;;;5025534;28;20424;-82
2021/05/31 06:52:46;;;;;;;2.40;2.10;;;22.20;44.10;;;;;;5010264;28;20446;-82
2021/05/31 06:55:13;;;;;;;2.53;2.30;;;22.30;44.60;;;;;;4988143;28;20464;-82
2021/05/31 06:57:40;;;;;;;4.00;2.77;;;22.30;44.00;;;;;;5017982;28;20411;-81
2021/05/31 07:00:08;;;;;;;2.50;2.30;;;22.30;44.00;;;;;;5007035;28;20515;-82
2021/05/31 07:02:35;;;;;;;3.07;2.10;;;22.40;44.10;;;;;;5025297;28;20487;-81
2021/05/31 07:05:01;;;;;;;3.00;2.27;;;22.30;44.00;;;;;;5006747;28;20530;-81
2021/05/31 07:10:54;;;;;;;3.50;1.90;;;22.40;44.00;;;;;;5024280;28;20800;-81
2021/05/31 07:13:23;;;;;;;4.30;2.23;;;22.40;44.10;;;;;;5023976;28;20420;-81
2021/05/31 07:15:51;;;;;;;3.17;2.10;;;22.40;44.10;;;;;;5023754;28;20466;-81
2021/05/31 07:18:19;;;;;;;2.50;1.90;;;22.40;44.10;;;;;;5024474;28;20415;-82
2021/05/31 07:20:46;;;;;;;2.60;2.13;;;22.40;44.10;;;;;;5004775;28;20415;-82
2021/05/31 07:23:12;;;;;;;3.23;2.27;;;22.50;44.20;;;;;;5022598;28;20427;-81
2021/05/31 07:25:38;;;;;;;2.77;2.20;;;22.50;44.20;;;;;;5024512;28;20546;-81
2021/05/31 07:28:10;;;;;;;4.43;2.20;;;22.50;44.30;;;;;;5006096;28;20265;-82
2021/05/31 07:30:38;;;;;;;3.73;2.57;;;22.50;44.20;;;;;;5025678;28;20400;-79
2021/05/31 07:33:12;;;;;;;3.10;2.30;;;22.50;44.30;;;;;;5027734;28;20423;-78
2021/05/31 07:35:39;;;;;;;3.67;2.43;;;22.50;44.30;;;;;;5025219;28;20813;-80
2021/05/31 07:38:37;;;;;;;2.40;2.20;;;22.60;45.00;;;;;;5016265;28;20474;-79
2021/05/31 07:41:06;;;;;;;3.23;2.33;;;22.60;44.40;;;;;;5033289;28;20400;-79
2021/05/31 07:43:37;;;;;;;4.53;2.40;;;22.60;44.50;;;;;;5033738;28;20412;-79
2021/05/31 07:46:03;;;;;;;2.67;1.83;;;22.60;44.50;;;;;;5017250;28;20510;-79
2021/05/31 07:48:29;;;;;;;4.57;2.30;;;22.60;44.50;;;;;;5016124;28;20411;-80
2021/05/31 07:51:15;;;;;;;2.00;1.73;;;22.60;44.50;;;;;;5017542;28;20478;-80
2021/05/31 07:53:45;;;;;;;3.87;1.93;;;22.60;44.50;;;;;;5035095;28;20159;-80
2021/05/31 07:56:13;;;;;;;3.97;2.03;;;22.60;44.60;;;;;;5017813;28;20426;-80
2021/05/31 07:58:42;;;;;;;2.67;2.47;;;22.70;44.70;;;;;;5018084;28;20467;-79
2021/05/31 08:01:14;;;;;;;4.33;2.47;;;22.70;44.60;;;;;;5035098;28;20418;-80
2021/05/31 08:03:44;;;;;;;2.33;1.70;;;22.70;44.60;;;;;;5033095;28;20786;-78
2021/05/31 08:06:10;;;;;;;5.30;2.57;;;22.70;44.60;;;;;;5029051;28;20403;-80
2021/05/31 08:08:42;;;;;;;2.37;1.67;;;22.70;44.60;;;;;;5030310;28;20196;-79
2021/05/31 08:11:12;;;;;;;2.57;1.90;;;22.80;44.80;;;;;;5015304;28;20407;-78
2021/05/31 08:13:40;;;;;;;2.00;1.80;;;22.80;44.70;;;;;;5014748;28;20438;-78
2021/05/31 08:16:08;;;;;;;3.30;2.03;;;22.80;44.80;;;;;;5030887;28;20404;-80
2021/05/31 08:18:37;;;;;;;1.83;1.70;;;22.80;44.80;;;;;;5011187;28;20403;-79
2021/05/31 08:21:04;;;;;;;3.60;2.23;;;22.80;44.80;;;;;;5012139;28;20480;-80
2021/05/31 08:23:33;;;;;;;2.63;1.97;;;22.80;44.80;;;;;;4994095;28;20809;-80
2021/05/31 08:26:03;;;;;;;2.20;2.00;;;22.80;44.90;;;;;;5012526;28;20485;-78
2021/05/31 08:28:29;;;;;;;3.73;2.43;;;22.80;44.90;;;;;;5027009;28;20581;-79
2021/05/31 08:31:00;;;;;;;7.63;1.57;;;22.80;44.90;;;;;;5009293;28;20446;-79
2021/05/31 08:33:28;;;;;;;2.23;1.90;;;22.80;44.90;;;;;;5008518;28;20546;-79
2021/05/31 08:36:03;;;;;;;2.63;1.63;;;22.90;45.00;;;;;;5009037;28;20473;-78
2021/05/31 08:38:41;;;;;;;1.90;1.70;;;22.80;44.90;;;;;;4947195;29;20403;-78
2021/05/31 08:41:07;;;;;;;2.20;1.60;;;22.80;45.00;;;;;;5011898;28;20420;-78
2021/05/31 08:43:33;;;;;;;2.33;1.97;;;22.90;45.10;;;;;;5008972;28;20495;-78
2021/05/31 08:49:24;;;;;;;2.63;2.00;;;22.90;45.00;;;;;;5026854;28;20182;-78
2021/05/31 08:51:53;;;;;;;2.53;2.00;;;22.90;45.10;;;;;;5026546;28;20415;-77
2021/05/31 08:54:22;;;;;;;2.00;1.80;;;22.90;45.10;;;;;;5026091;28;20549;-77
2021/05/31 08:56:49;;;;;;;2.97;2.10;;;22.90;45.10;;;;;;5008567;28;20416;-77
2021/05/31 08:59:15;;;;;;;3.57;1.90;;;22.90;45.10;;;;;;5025290;28;20416;-78
2021/05/31 09:01:41;;;;;;;2.00;1.80;;;22.90;45.10;;;;;;5024434;28;20438;-78
2021/05/31 09:04:15;;;;;;;2.13;1.63;;;22.90;45.10;;;;;;5008483;28;20630;-78
2021/05/31 09:07:06;;;;;;;1.97;1.73;;;22.90;45.10;;;;;;5008832;28;20430;-78
2021/05/31 09:09:39;;;;;;;2.80;1.90;;;22.90;45.20;;;;;;5025815;28;20474;-78
2021/05/31 09:12:08;;;;;;;2.07;1.67;;;23.00;45.30;;;;;;5008363;28;20435;-78
2021/05/31 09:14:34;;;;;;;2.10;1.60;;;23.00;45.30;;;;;;5025481;28;20505;-78
2021/05/31 09:16:59;;;;;;;2.20;2.00;;;23.00;45.30;;;;;;5007661;28;20419;-77
2021/05/31 09:19:27;;;;;;;3.37;1.80;;;23.00;45.20;;;;;;5008560;28;20202;-77
2021/05/31 09:21:53;;;;;;;2.37;2.17;;;23.00;45.20;;;;;;5026013;28;20168;-78
2021/05/31 09:24:23;;;;;;;2.47;1.60;;;23.00;45.30;;;;;;5025466;28;20422;-78
2021/05/31 09:26:51;;;;;;;2.67;1.70;;;23.00;45.30;;;;;;5025918;28;20191;-78
2021/05/31 09:29:25;;;;;;;1.53;1.43;;;23.00;45.30;;;;;;5008272;28;20431;-78
2021/05/31 09:32:03;;;;;;;1.90;1.70;;;23.00;45.30;;;;;;5024585;28;20419;-77
2021/05/31 09:34:35;;;;;;;1.63;1.50;;;23.00;45.30;;;;;;5028366;28;20530;-79
2021/05/31 09:37:04;;;;;;;1.90;1.77;;;23.00;45.30;;;;;;5026952;28;20416;-80
2021/05/31 09:39:39;;;;;;;1.80;1.70;;;23.00;45.30;;;;;;5008242;28;20446;-79
2021/05/31 09:42:12;;;;;;;4.50;1.60;;;23.10;45.20;;;;;;4989551;28;20443;-80
2021/05/31 09:45:07;;;;;;;2.10;1.90;;;23.10;45.20;;;;;;5024902;28;20514;-80
2021/05/31 09:47:42;;;;;;;2.00;1.67;;;23.00;45.10;;;;;;5009556;28;20411;-80
2021/05/31 09:50:09;;;;;;;2.80;1.60;;;23.00;45.10;;;;;;5026898;28;20410;-80
2021/05/31 09:52:39;;;;;;;3.53;1.77;;;23.10;45.10;;;;;;5012266;28;20445;-79
2021/05/31 09:55:09;;;;;;;2.47;1.77;;;23.10;45.10;;;;;;5012234;28;20985;-80
2021/05/31 09:57:36;;;;;;;3.43;1.70;;;23.10;45.10;;;;;;5010817;28;20435;-80
2021/05/31 10:00:20;;;;;;;1.87;1.77;;;23.10;45.00;;;;;;5012104;28;20419;-80
2021/05/31 10:03:04;;;;;;;2.00;1.80;;;23.10;45.00;;;;;;5011589;28;20446;-80
2021/05/31 10:05:48;;;;;;;2.03;1.93;;;23.10;45.00;;;;;;5028839;28;20423;-79
2021/05/31 10:10:47;;;;;;;3.03;1.77;;;23.10;45.00;;;;;;5030540;28;20442;-79
2021/05/31 10:13:18;;;;;;;3.47;2.63;;;23.10;45.00;;;;;;5030318;28;20403;-82
2021/05/31 10:15:45;;;;;;;2.70;2.13;;;23.10;45.00;;;;;;5014220;28;20450;-81
2021/05/31 10:18:14;;;;;;;2.80;1.60;;;23.10;44.90;;;;;;5017437;28;20438;-81
2021/05/31 10:20:44;;;;;;;1.87;1.77;;;23.10;44.90;;;;;;5017296;28;20442;-81
2021/05/31 10:23:11;;;;;;;4.50;1.90;;;23.10;44.90;;;;;;5032867;28;20437;-81
2021/05/31 10:25:41;;;;;;;2.40;1.70;;;23.10;44.90;;;;;;5032729;28;20434;-82
2021/05/31 10:28:13;;;;;;;2.10;1.80;;;23.10;44.90;;;;;;5034148;28;20415;-81
2021/05/31 10:30:40;;;;;;;2.57;2.10;;;23.10;44.80;;;;;;5032205;28;20506;-81
2021/05/31 10:33:20;;;;;;;2.10;1.70;;;23.10;44.80;;;;;;5033461;28;20510;-81
2021/05/31 10:35:47;;;;;;;2.03;1.73;;;23.10;44.80;;;;;;5016413;28;20562;-81
2021/05/31 10:38:31;;;;;;;1.87;1.77;;;23.10;45.40;;;;;;5015227;28;20408;-81
2021/05/31 10:40:57;;;;;;;3.13;1.90;;;23.10;44.80;;;;;;5016078;28;20415;-81
2021/05/31 10:43:25;;;;;;;2.90;1.70;;;23.10;44.90;;;;;;5016593;28;20430;-82
2021/05/31 10:46:14;;;;;;;1.70;1.60;;;23.10;44.80;;;;;;5012362;28;20180;-81
2021/05/31 10:48:45;;;;;;;3.33;1.70;;;23.10;44.90;;;;;;4984385;28;20427;-82
2021/05/31 10:51:18;;;;;;;1.87;1.43;;;23.10;44.90;;;;;;4998713;28;20413;-81
2021/05/31 10:53:49;;;;;;;1.80;1.70;;;23.10;45.20;;;;;;5016287;28;20420;-81
2021/05/31 10:56:40;;;;;;;1.77;1.60;;;23.10;44.80;;;;;;5015884;28;20412;-81
2021/05/31 10:59:08;;;;;;;1.70;1.53;;;23.20;44.90;;;;;;4953696;29;20406;-81
2021/05/31 11:01:37;;;;;;;2.00;1.60;;;23.10;44.90;;;;;;4938350;29;20419;-81
2021/05/31 11:04:07;;;;;;;2.20;1.90;;;23.10;44.90;;;;;;4953739;29;20514;-81
2021/05/31 11:06:38;;;;;;;2.20;1.50;;;23.10;44.90;;;;;;4970795;29;20427;-81
2021/05/31 11:09:14;;;;;;;2.00;1.80;;;23.20;45.00;;;;;;4970021;29;20487;-80
2021/05/31 11:11:52;;;;;;;1.93;1.50;;;23.20;45.00;;;;;;4937856;29;20465;-85
2021/05/31 11:14:44;;;;;;;3.40;1.80;;;23.10;44.90;;;;;;4954663;29;20459;-81
2021/05/31 11:17:17;;;;;;;1.73;1.60;;;23.10;44.90;;;;;;4954867;29;20455;-82
2021/05/31 11:19:48;;;;;;;1.90;1.57;;;23.10;44.90;;;;;;4970101;29;20467;-81
2021/05/31 11:22:22;;;;;;;2.67;1.40;;;23.10;44.90;;;;;;4970031;29;20980;-81
2021/05/31 11:25:10;;;;;;;1.97;1.80;;;23.10;44.90;;;;;;4954295;29;20427;-81
2021/05/31 11:27:38;;;;;;;1.97;1.50;;;23.20;45.00;;;;;;4969692;29;20475;-81
2021/05/31 11:30:13;;;;;;;1.70;1.60;;;23.10;44.90;;;;;;4971005;29;20429;-81
2021/05/31 11:32:45;;;;;;;3.10;2.00;;;23.20;45.00;;;;;;4953439;29;20444;-81
2021/05/31 11:35:18;;;;;;;1.50;1.40;;;23.10;45.00;;;;;;4944130;28;20471;-81
2021/05/31 11:37:51;;;;;;;2.10;1.90;;;23.20;45.00;;;;;;4994315;28;20420;-81
2021/05/31 11:40:22;;;;;;;1.97;1.80;;;23.20;45.00;;;;;;4994194;28;20436;-82
2021/05/31 11:42:57;;;;;;;2.10;1.90;;;23.20;45.00;;;;;;5010896;28;20404;-82
2021/05/31 11:45:27;;;;;;;2.30;1.90;;;23.20;45.00;;;;;;5012256;28;20745;-82
2021/05/31 11:48:12;;;;;;;1.80;1.70;;;23.20;45.00;;;;;;4994934;28;20420;-82
2021/05/31 11:54:00;;;;;;;1.77;1.37;;;23.20;45.00;;;;;;5011875;28;20383;-81
2021/05/31 11:56:38;;;;;;;3.10;2.07;;;23.10;45.00;;;;;;5011373;28;20404;-82
2021/05/31 11:59:10;;;;;;;2.07;1.77;;;23.10;45.00;;;;;;4994682;28;20231;-82
2021/05/31 12:01:36;;;;;;;2.00;1.70;;;23.10;45.00;;;;;;4994216;28;20412;-81
2021/05/31 12:04:03;;;;;;;2.37;1.70;;;23.10;45.10;;;;;;5009906;28;20454;-82
2021/05/31 12:06:29;;;;;;;2.30;1.70;;;23.20;45.00;;;;;;4993645;28;20181;-82
2021/05/31 12:09:50;;;;;;;2.30;1.77;;;23.20;45.10;;;;;;5009798;28;20436;-82
2021/05/31 12:12:20;;;;;;;2.60;1.60;;;23.20;45.00;;;;;;5011894;28;20203;-82
2021/05/31 12:14:47;;;;;;;2.10;1.90;;;23.10;45.00;;;;;;5011482;28;20451;-81
2021/05/31 12:17:17;;;;;;;2.07;1.87;;;23.10;45.00;;;;;;5011049;28;20472;-81
2021/05/31 12:19:45;;;;;;;2.10;2.00;;;23.10;45.00;;;;;;4993441;28;20455;-83
2021/05/31 12:22:12;;;;;;;2.40;2.20;;;23.10;45.00;;;;;;4989372;28;20505;-83
2021/05/31 12:24:41;;;;;;;2.93;2.73;;;23.10;45.00;;;;;;5006280;28;20419;-84
2021/05/31 12:27:07;;;;;;;3.83;2.73;;;23.10;45.00;;;;;;5005622;28;20412;-83
2021/05/31 12:29:41;;;;;;;3.90;3.60;;;23.10;45.00;;;;;;4988694;28;20946;-83
2021/05/31 12:32:12;;;;;;;3.87;3.60;;;23.20;45.10;;;;;;5006420;28;20400;-83
2021/05/31 12:34:40;;;;;;;3.70;3.50;;;23.10;45.00;;;;;;5005592;28;20436;-83
2021/05/31 12:37:11;;;;;;;4.60;4.30;;;23.20;45.10;;;;;;4987781;28;20442;-83
2021/05/31 12:39:41;;;;;;;5.17;4.40;;;23.10;45.00;;;;;;4987393;28;20416;-83
2021/05/31 12:42:08;;;;;;;4.77;4.47;;;23.10;45.10;;;;;;5005821;28;20428;-83
2021/05/31 12:44:33;;;;;;;5.17;4.87;;;23.10;45.10;;;;;;5005914;28;20411;-84
2021/05/31 12:47:17;;;;;;;5.70;5.30;;;23.10;45.00;;;;;;5003858;28;20452;-83
2021/05/31 12:49:48;;;;;;;5.20;4.80;;;23.10;45.10;;;;;;4987408;28;20203;-89
2021/05/31 12:52:22;;;;;;;5.50;5.10;;;23.10;45.10;;;;;;5005648;28;20416;-83
2021/05/31 12:55:06;;;;;;;6.27;5.90;;;23.10;45.10;;;;;;5004824;28;20436;-82
2021/05/31 12:57:41;;;;;;;6.10;5.60;;;23.10;45.10;;;;;;4987158;28;20437;-81
2021/05/31 13:00:17;;;;;;;5.90;5.60;;;23.10;45.10;;;;;;5006955;28;20415;-84
2021/05/31 13:02:58;;;;;;;6.60;6.10;;;23.10;45.10;;;;;;4990337;28;20423;-83
2021/05/31 13:05:28;;;;;;;7.10;6.60;;;23.10;45.10;;;;;;4990375;28;20488;-83
2021/05/31 13:07:59;;;;;;;6.00;5.70;;;23.10;45.10;;;;;;5009018;28;20455;-83
2021/05/31 13:10:55;;;;;;;6.77;6.30;;;23.10;45.20;;;;;;4991250;28;20455;-89
2021/05/31 13:13:35;;;;;;;6.70;6.30;;;23.10;45.10;;;;;;5007251;28;20476;-83
2021/05/31 13:16:08;;;;;;;6.43;6.03;;;23.10;45.10;;;;;;5005500;28;20515;-83
2021/05/31 13:18:39;;;;;;;7.20;6.70;;;23.10;45.20;;;;;;4987011;28;20490;-83
2021/05/31 13:21:11;;;;;;;6.33;5.93;;;23.10;45.20;;;;;;4986545;28;20423;-83
2021/05/31 13:23:39;;;;;;;6.53;6.03;;;23.10;45.20;;;;;;4972088;28;20413;-83
2021/05/31 13:26:21;;;;;;;6.90;6.50;;;23.10;45.20;;;;;;5005736;28;20837;-83
2021/05/31 13:28:53;;;;;;;6.70;6.20;;;23.10;45.20;;;;;;5007897;28;20404;-83